ADDS METAR Data INFO
IDs: Format: Raw Decoded Include TAF

Data at: 0219 UTC 14 Dec 2017

KASD 140153Z AUTO 22003KT 10SM CLR 07/04 A3002 RMK AO2 SLP165 T00720044
KASD 140053Z AUTO 00000KT 10SM CLR 07/04 A3002 RMK AO2 SLP165 T00720044
KASD 132353Z AUTO 00000KT 10SM CLR 09/04 A3002 RMK AO2 SLP167 T00890044 10150 20089 55014
KASD 132253Z AUTO 00000KT 10SM CLR 11/04 A3002 RMK AO2 SLP166 T01110044
KASD 132153Z AUTO 22004KT 10SM CLR 13/01 A3005 RMK AO2 SLP175 T01330006
KASD 132053Z AUTO 20008KT 10SM CLR 14/M02 A3007 RMK AO2 SLP181 T01391017 56024
KASD 131953Z AUTO VRB06KT 10SM CLR 14/M02 A3008 RMK AO2 SLP185 T01441017
KASD 131853Z AUTO VRB06KT 10SM CLR 14/M01 A3011 RMK AO2 SLP196 T01391006
KASD 131753Z AUTO 22008KT 10SM CLR 13/01 A3014 RMK AO2 SLP205 T01280011 10133 21017 58014
KASD 131653Z AUTO 17009KT 10SM CLR 12/03 A3017 RMK AO2 SLP215 T01220028
KASD 131553Z AUTO 14006KT 10SM CLR 11/03 A3019 RMK AO2 SLP222 T01060033
KASD 131453Z AUTO 00000KT 10SM CLR 07/02 A3018 RMK AO2 SLP219 T00670017 50009
KASD 131353Z AUTO 00000KT 10SM CLR 01/M01 A3018 RMK AO2 SLP220 T00111011
KASD 131253Z AUTO 00000KT 10SM CLR M01/M03 A3017 RMK AO2 SLP217 T10111028
KASD 131153Z AUTO 00000KT 10SM CLR M01/M02 A3015 RMK AO2 SLP210 T10111022 10017 21017 56005
KASD 131053Z AUTO 00000KT 10SM CLR M01/M03 A3016 RMK AO2 SLP212 T10111028
KASD 130953Z AUTO 00000KT 10SM CLR M01/M02 A3015 RMK AO2 SLP209 T10111022
KASD 130853Z AUTO 00000KT 10SM CLR 00/M02 A3017 RMK AO2 SLP215 T00001017 57000
KASD 130753Z AUTO 00000KT 10SM CLR 01/M01 A3017 RMK AO2 SLP216 T00061011
KASD 130653Z AUTO 00000KT 10SM CLR 01/M01 A3017 RMK AO2 SLP215 T00111006
KASD 130553Z AUTO 00000KT 10SM CLR 02/01 A3017 RMK AO2 SLP216 T00170006 10094 20017 401720017 58001
KASD 130453Z AUTO 00000KT 10SM CLR 04/01 A3018 RMK AO2 SLP221 T00390006
KASD 130353Z AUTO 00000KT 10SM CLR 06/02 A3018 RMK AO2 SLP219 T00560022
KASD 130253Z AUTO 34004KT 10SM CLR 08/01 A3017 RMK AO2 SLP216 T00780011 51011
KASD 130153Z AUTO 00000KT 10SM CLR 06/03 A3016 RMK AO2 SLP214 T00610028
KASD 130053Z AUTO 00000KT 10SM CLR 07/03 A3015 RMK AO2 SLP210 T00720028
KASD 122353Z AUTO 00000KT 10SM CLR 09/04 A3014 RMK AO2 SLP205 T00940044 10172 20094 53013
KASD 122253Z AUTO 00000KT 10SM CLR 13/02 A3012 RMK AO2 SLP199 T01330022
KASD 122153Z AUTO 32008KT 10SM CLR 16/01 A3011 RMK AO2 SLP197 T01610006
KASD 122053Z AUTO 31008G16KT 10SM CLR 17/01 A3010 RMK AO2 SLP193 T01670011 55013
KASD 121953Z AUTO 35008G17KT 10SM CLR 17/01 A3010 RMK AO2 SLP191 T01720006
KASD 121853Z AUTO 35010G17KT 310V020 10SM CLR 16/00 A3012 RMK AO2 SLP199 T01610000
KASD 121753Z AUTO 01015G21KT 10SM CLR 16/01 A3014 RMK AO2 SLP206 T01610006 10161 20083 58014
KASD 121653Z AUTO 36012G19KT 10SM CLR 15/01 A3016 RMK AO2 SLP214 T01500006
KASD 121553Z AUTO 01017G23KT 10SM CLR 14/01 A3018 RMK AO2 SLP220 T01390011
KASD 121453Z AUTO 36010G17KT 10SM CLR 12/03 A3018 RMK AO2 SLP219 T01220033 51028